createdAt,value
2022-09-15T00:11:25.537Z,87.60
2022-09-15T00:26:29.586Z,87.50
2022-09-15T00:41:31.696Z,87.30
2022-09-15T00:56:35.196Z,87.45
2022-09-15T01:11:37.178Z,87.14
2022-09-15T01:27:13.876Z,87.51
2022-09-15T01:42:25.324Z,87.81
2022-09-15T01:57:28.246Z,87.93
2022-09-15T02:12:48.215Z,87.82
2022-09-15T02:27:54.075Z,88.23
2022-09-15T02:42:59.175Z,88.57
2022-09-15T02:58:01.191Z,88.55
2022-09-15T03:13:03.108Z,88.20
2022-09-15T03:28:04.990Z,88.72
2022-09-15T03:43:06.856Z,88.82
2022-09-15T03:58:10.296Z,88.65
2022-09-15T04:13:12.275Z,89.29
2022-09-15T04:28:14.125Z,89.33
2022-09-15T04:43:16.049Z,89.42
2022-09-15T04:58:17.946Z,89.03
2022-09-15T05:13:20.038Z,88.91
2022-09-15T05:28:21.938Z,88.98
2022-09-15T05:43:23.839Z,88.53
2022-09-15T05:58:26.998Z,88.45
2022-09-15T06:13:28.929Z,87.67
2022-09-15T06:28:30.819Z,86.17
2022-09-15T06:43:33.747Z,84.36
2022-09-15T06:58:36.859Z,81.38
2022-09-15T07:13:39.086Z,80.42
2022-09-15T07:28:42.839Z,79.87
2022-09-15T07:43:48.686Z,77.38
2022-09-15T07:58:51.536Z,73.07
2022-09-15T08:13:53.468Z,69.94
2022-09-15T08:28:55.367Z,69.36
2022-09-15T08:44:27.918Z,66.91
2022-09-15T08:59:36.036Z,65.91
2022-09-15T09:14:40.907Z,65.99
2022-09-15T09:29:52.376Z,65.47
2022-09-15T09:44:54.310Z,65.13
2022-09-15T09:59:56.859Z,63.36
2022-09-15T10:15:04.510Z,62.89
2022-09-15T10:30:15.249Z,59.58
2022-09-15T10:45:23.017Z,61.83
2022-09-15T11:00:28.745Z,60.84
2022-09-15T11:15:49.477Z,60.21
2022-09-15T11:31:28.628Z,58.35
2022-09-15T11:46:59.806Z,55.21
2022-09-15T12:02:18.667Z,58.18
2022-09-15T12:17:38.138Z,58.55
2022-09-15T12:32:40.617Z,59.48
2022-09-15T12:47:50.865Z,58.31
2022-09-15T13:02:53.086Z,56.86
2022-09-15T13:17:56.067Z,58.14
2022-09-15T13:33:13.717Z,58.15
2022-09-15T13:48:37.006Z,60.04
2022-09-15T14:04:02.282Z,59.65
2022-09-15T14:19:29.187Z,60.84
2022-09-15T14:34:33.617Z,62.03
2022-09-15T14:49:35.555Z,61.52
2022-09-15T15:04:41.315Z,62.62
2022-09-15T15:19:43.288Z,62.71
2022-09-15T15:34:52.636Z,64.25
2022-09-15T15:50:12.404Z,64.37
2022-09-15T16:05:15.742Z,64.91
2022-09-15T16:20:19.910Z,65.81
2022-09-15T16:35:33.896Z,66.84
2022-09-15T16:50:39.869Z,67.91
2022-09-15T17:05:48.742Z,68.64
2022-09-15T17:20:51.325Z,70.27
2022-09-15T17:35:53.568Z,71.58
2022-09-15T17:50:55.686Z,73.00
2022-09-15T18:05:59.760Z,74.34
2022-09-15T18:21:06.639Z,74.87
2022-09-15T18:36:09.175Z,75.47
2022-09-15T18:51:16.283Z,75.98
2022-09-15T19:06:22.378Z,76.35
2022-09-15T19:21:27.361Z,76.71
2022-09-15T19:36:29.597Z,77.71
2022-09-15T19:51:31.786Z,78.64
2022-09-15T20:06:33.782Z,78.85
2022-09-15T20:21:53.009Z,79.60
2022-09-15T20:36:55.153Z,80.47
2022-09-15T20:51:57.104Z,82.20
2022-09-15T21:06:59.642Z,82.68
2022-09-15T21:22:01.962Z,83.69
2022-09-15T21:37:04.102Z,84.56
2022-09-15T21:52:06.101Z,85.15
2022-09-15T22:07:08.103Z,85.37
2022-09-15T22:22:10.102Z,85.49
2022-09-15T22:37:12.183Z,85.84
2022-09-15T22:52:14.141Z,86.32
2022-09-15T23:07:16.016Z,86.41
2022-09-15T23:22:17.909Z,86.63
2022-09-15T23:37:19.837Z,87.04
2022-09-15T23:52:21.718Z,85.85
